KCHK/CHK METAR and TAF weather

Enter ICAO airport designator
Station Type Date Time Source
KCHK METAR 2021/05/12 03:55 UTC NOAA

KCHK 120355Z AUTO 04010KT 10SM OVC042 12/07 A3019 RMK AO2 T01190073


Station Type Date Time Source
KCHK Decoded METAR 2021/05/12 03:55 UTC NOAA

Chickasha, Chickasha Municipal Airport, OK, United States (KCHK) 35-05-46N 097-57-58W
May 11, 2021 - 11:55 PM EDT / 2021.05.12 0355 UTC
Wind: from the NE (040 degrees) at 12 MPH (10 KT):0
Visibility: 10 mile(s):0
Sky conditions: overcast
Temperature: 53.4 F (11.9 C)
Dew Point: 45.1 F (7.3 C)
Relative Humidity: 73%
Pressure (altimeter): 30.19 in. Hg (1022 hPa)
ob: KCHK 120355Z AUTO 04010KT 10SM OVC042 12/07 A3019 RMK AO2 T01190073
cycle: 4

Station Type Date Time Source
KCHK TAF UTC NOAA

Error!

Example: see airport list